Sunday, April 22, 2018, 5:34 PM EDT
Back to Local

KGFL, Floyd Bennett Memorial Airport

Location: Queensbury, NY, United States Lat: 43.333
Local Time: 5:34 PM EDT (21:34 GMT) Lon: -73.617
Time Zone: US/Eastern Elev: 328 ft

Show me the last for .
Show Coded

Time T Td Feel RH Dir Speed Gust Alt SLP Vis Weather Sky Remarks
2018-04-22 16:53 60 10 - 13 350° 13 - 30.32 30.33 10 CLR None
2018-04-22 15:53 59 11 - 14 10° 10 - 30.32 30.33 10 CLR None
2018-04-22 14:53 58 10 - 14 350° 12 18 30.33 30.35 10 CLR None
2018-04-22 13:53 58 12 - 16 350° 14 20 30.36 30.37 10 CLR 6-hr Min Temp (2pm): 39.9°F
6-hr Max Temp (2pm): 59.0°F
2018-04-22 12:53 57 13 - 17 330° 10 22 30.37 30.39 10 CLR None
2018-04-22 11:53 53 18 - 24 50° 10 - 30.39 30.41 10 CLR None
2018-04-22 10:53 51 19 - 27 30° 12 - 30.40 30.42 10 CLR None
2018-04-22 09:53 48 20 45 32 20° 6 - 30.41 30.42 10 CLR None
2018-04-22 08:53 44 25 - 46 - Calm - 30.41 30.42 10 CLR None
2018-04-22 07:53 40 26 36 57 330° 6 - 30.40 30.42 10 CLR 6-hr Min Temp (8am): 23.0°F
6-hr Max Temp (8am): 39.9°F
2018-04-22 06:53 26 24 - 92 - Calm - 30.39 30.41 10 CLR None
2018-04-22 05:53 25 22 - 87 - Calm - 30.38 30.40 10 CLR None
2018-04-22 04:53 26 24 22 92 230° 3 - 30.36 30.38 10 CLR None
2018-04-22 03:53 27 22 - 80 - Calm - 30.36 30.37 10 CLR None
2018-04-22 02:53 27 23 - 84 - Calm - 30.35 30.37 10 CLR None
2018-04-22 01:53 30 22 - 71 - Calm - 30.35 30.37 10 CLR 6-hr Min Temp (2am): 28.0°F
6-hr Max Temp (2am): 48.0°F
2018-04-22 00:53 30 22 - 71 - Calm - 30.36 30.37 10 CLR 24-hr Min Temp (1am): 25.0°F
24-hr Max Temp (1am): 57.0°F
2018-04-21 23:53 35 22 30 58 80° 6 - 30.34 30.36 10 CLR None
2018-04-21 22:53 38 20 31 47 290° 9 - 30.33 30.35 10 CLR None
2018-04-21 21:53 41 19 39 40 360° 3 - 30.32 30.34 10 CLR None
2018-04-21 20:53 48 16 45 27 330° 6 - 30.31 30.33 10 CLR None
2018-04-21 19:53 48 17 44 28 350° 9 - 30.30 30.31 10 CLR 6-hr Min Temp (8pm): 46.9°F
6-hr Max Temp (8pm): 57.0°F
2018-04-21 18:53 53 18 - 24 340° 8 - 30.27 30.28 10 CLR None
2018-04-21 17:53 55 16 - 21 320° 17 24 30.25 30.27 10 CLR None

Support USWX by starting your Amazon purchase here.